Boaz, AL

7:46 AM CDT on May 27, 2015 (GMT -0500)
Albertville | | Change Station
CLOSE
Current Station
Airport
Location: Albertville,
Elevation: 1033 ft
Nearby Weather Stations

Elev 1033 ft 34.23 °N, 86.26 °W | Updated 11 minutes ago

Overcast
Overcast
68 °F
Feels Like 68 °F
N
5
Wind Variable Wind from South

Today
High -- | Low -- °F
--% Chance of Precip.
Yesterday
High -- | Low -- °F
Precip. -- in
5:35 AM 7:48 PM
Waxing Gibbous, 67% visible
Pressure 30.22 in
Visibility 5.0 miles
Clouds Overcast 200 ft
Dew Point 68 °F
Humidity 100%
Rainfall 0.00 in
Snow Depth Not available.
UV 1 out of 12
Pollen 5.20 out of 12
Air Quality Not available.
Flu Activity Sporadic
METAR K8A0 271235Z AUTO 17004KT 5SM BR OVC002 20/20 A3022 RMK AO2

More Conditions Fewer Conditions

Pressure 30.22 in
Visibility 5.0 miles
Clouds Overcast 200 ft
Dew Point 68 °F
Humidity 100%
Rainfall 0.00 in
Snow Depth Not available.
UV 1 out of 12
Pollen 5.20 out of 12
Air Quality Not available.
Flu Activity Sporadic
METAR K8A0 271235Z AUTO 17004KT 5SM BR OVC002 20/20 A3022 RMK AO2

More Conditions Fewer Conditions

10-Day Weather Forecast

Almanac

Astronomy

May. 27, 2015 Rise Set
Actual Time
Civil Twilight
Nautical Twilight
Astronomical Twilight
Moon
Length of Visible Light
Length of Day
Tomorrow will be .
, % of the Moon is Illuminated

Today's Extremes

State Highs State Lows

Community

WunderPhotos

Upload Photos

1,824,661 photos uploaded!

WunderBlogs® & News

Nearby

Air Quality

  Air Quality AQ Index Pollutant
Not available.

Snow Depth

Station Depth Elevation

Earthquake Activity

City Distance Mag. Time & Date
Minimum magnitude displayed is 2.5.

Coastal Water Temperatures

Place Temperature

Stations

Nearby Weather Stations

Station Location Temp. Windchill Dew Point Humidity Wind Precip. Elev Updated Type